sensor_id;sensor_type;location;lat;lon;timestamp;pressure;altitude;pressure_sealevel;temperature;humidity
49216;BME280;45943;53.148;8.204;2023-02-18T00:01:12;101968.94;;;10.08;100.00
49216;BME280;45943;53.148;8.204;2023-02-18T00:03:40;101968.09;;;10.07;100.00
49216;BME280;45943;53.148;8.204;2023-02-18T00:06:13;101969.63;;;10.12;100.00
49216;BME280;45943;53.148;8.204;2023-02-18T00:08:41;101975.66;;;10.15;100.00
49216;BME280;45943;53.148;8.204;2023-02-18T00:11:08;101974.09;;;10.11;100.00
49216;BME280;45943;53.148;8.204;2023-02-18T00:13:34;101968.59;;;10.14;100.00
49216;BME280;45943;53.148;8.204;2023-02-18T00:16:01;101975.66;;;10.15;100.00
49216;BME280;45943;53.148;8.204;2023-02-18T00:18:29;101969.06;;;10.21;100.00
49216;BME280;45943;53.148;8.204;2023-02-18T00:20:55;101976.53;;;10.16;100.00
49216;BME280;45943;53.148;8.204;2023-02-18T00:23:21;101970.97;;;10.19;100.00
49216;BME280;45943;53.148;8.204;2023-02-18T00:25:48;101955.75;;;10.19;100.00
49216;BME280;45943;53.148;8.204;2023-02-18T00:28:14;101957.41;;;10.22;100.00
49216;BME280;45943;53.148;8.204;2023-02-18T00:30:40;101963.03;;;10.17;100.00
49216;BME280;45943;53.148;8.204;2023-02-18T00:33:07;101973.75;;;10.17;100.00
49216;BME280;45943;53.148;8.204;2023-02-18T00:35:33;101968.13;;;10.22;100.00
49216;BME280;45943;53.148;8.204;2023-02-18T00:37:59;101968.91;;;10.24;100.00
49216;BME280;45943;53.148;8.204;2023-02-18T00:40:25;101968.63;;;10.28;100.00
49216;BME280;45943;53.148;8.204;2023-02-18T00:42:51;101964.22;;;10.27;100.00
49216;BME280;45943;53.148;8.204;2023-02-18T00:45:17;101960.59;;;10.28;100.00
49216;BME280;45943;53.148;8.204;2023-02-18T00:47:43;101955.97;;;10.30;100.00
49216;BME280;45943;53.148;8.204;2023-02-18T00:50:09;101953.28;;;10.30;100.00
49216;BME280;45943;53.148;8.204;2023-02-18T00:52:35;101950.72;;;10.29;100.00
49216;BME280;45943;53.148;8.204;2023-02-18T00:55:01;101949.59;;;10.33;100.00
49216;BME280;45943;53.148;8.204;2023-02-18T00:57:27;101939.78;;;10.32;100.00
49216;BME280;45943;53.148;8.204;2023-02-18T00:59:53;101946.97;;;10.31;100.00
49216;BME280;45943;53.148;8.204;2023-02-18T01:02:19;101943.81;;;10.25;100.00
49216;BME280;45943;53.148;8.204;2023-02-18T01:04:45;101939.78;;;10.32;100.00
49216;BME280;45943;53.148;8.204;2023-02-18T01:07:11;101926.31;;;10.33;100.00
49216;BME280;45943;53.148;8.204;2023-02-18T01:09:37;101933.50;;;10.33;100.00
49216;BME280;45943;53.148;8.204;2023-02-18T01:12:04;101933.28;;;10.36;100.00
49216;BME280;45943;53.148;8.204;2023-02-18T01:14:30;101927.72;;;10.39;100.00
49216;BME280;45943;53.148;8.204;2023-02-18T01:16:56;101929.44;;;10.40;100.00
49216;BME280;45943;53.148;8.204;2023-02-18T01:19:22;101928.31;;;10.44;100.00
49216;BME280;45943;53.148;8.204;2023-02-18T01:21:48;101920.16;;;10.46;100.00
49216;BME280;45943;53.148;8.204;2023-02-18T01:24:14;101913.19;;;10.43;100.00
49216;BME280;45943;53.148;8.204;2023-02-18T01:26:40;101909.66;;;10.43;100.00
49216;BME280;45943;53.148;8.204;2023-02-18T01:29:06;101901.41;;;10.46;100.00
49216;BME280;45943;53.148;8.204;2023-02-18T01:31:32;101912.13;;;10.46;100.00
49216;BME280;45943;53.148;8.204;2023-02-18T01:33:58;101906.97;;;10.43;100.00
49216;BME280;45943;53.148;8.204;2023-02-18T01:36:24;101914.22;;;10.41;100.00
49216;BME280;45943;53.148;8.204;2023-02-18T01:38:50;101911.16;;;10.47;100.00
49216;BME280;45943;53.148;8.204;2023-02-18T01:41:16;101915.78;;;10.45;100.00
49216;BME280;45943;53.148;8.204;2023-02-18T01:43:42;101918.06;;;10.37;100.00
49216;BME280;45943;53.148;8.204;2023-02-18T01:46:12;101915.47;;;10.35;100.00
49216;BME280;45943;53.148;8.204;2023-02-18T01:48:50;101910.13;;;10.35;100.00
49216;BME280;45943;53.148;8.204;2023-02-18T01:51:24;101912.91;;;10.33;100.00
49216;BME280;45943;53.148;8.204;2023-02-18T01:54:10;101913.66;;;10.36;100.00
49216;BME280;45943;53.148;8.204;2023-02-18T01:57:02;101916.13;;;10.39;100.00
49216;BME280;45943;53.148;8.204;2023-02-18T01:59:30;101912.31;;;10.43;100.00
49216;BME280;45943;53.148;8.204;2023-02-18T02:02:01;101914.31;;;10.39;100.00
49216;BME280;45943;53.148;8.204;2023-02-18T02:04:28;101903.59;;;10.39;100.00
49216;BME280;45943;53.148;8.204;2023-02-18T02:06:54;101901.97;;;10.37;100.00
49216;BME280;45943;53.148;8.204;2023-02-18T02:09:21;101911.44;;;10.28;100.00
49216;BME280;45943;53.148;8.204;2023-02-18T02:15:18;101900.75;;;10.42;100.00
49216;BME280;45943;53.148;8.204;2023-02-18T02:21:04;101898.91;;;10.43;100.00
49216;BME280;45943;53.148;8.204;2023-02-18T02:32:03;101887.56;;;10.52;100.00
49216;BME280;45943;53.148;8.204;2023-02-18T02:35:02;101886.06;;;10.48;100.00
49216;BME280;45943;53.148;8.204;2023-02-18T02:40:51;101857.03;;;10.54;100.00
49216;BME280;45943;53.148;8.204;2023-02-18T02:43:48;101846.31;;;10.54;100.00
49216;BME280;45943;53.148;8.204;2023-02-18T02:46:17;101846.75;;;10.61;100.00
49216;BME280;45943;53.148;8.204;2023-02-18T02:49:22;101842.44;;;10.58;100.00
49216;BME280;45943;53.148;8.204;2023-02-18T02:51:58;101839.75;;;10.58;100.00
49216;BME280;45943;53.148;8.204;2023-02-18T02:54:35;101829.88;;;10.59;100.00
49216;BME280;45943;53.148;8.204;2023-02-18T02:57:08;101826.94;;;10.63;100.00
49216;BME280;45943;53.148;8.204;2023-02-18T02:59:58;101820.88;;;10.60;100.00
49216;BME280;45943;53.148;8.204;2023-02-18T03:02:51;101827.69;;;10.66;100.00
49216;BME280;45943;53.148;8.204;2023-02-18T03:10:53;101803.81;;;10.61;100.00
49216;BME280;45943;53.148;8.204;2023-02-18T03:16:26;101799.25;;;10.63;100.00
49216;BME280;45943;53.148;8.204;2023-02-18T03:21:52;101794.16;;;10.58;100.00
49216;BME280;45943;53.148;8.204;2023-02-18T03:24:24;101793.41;;;10.56;100.00
49216;BME280;45943;53.148;8.204;2023-02-18T03:26:59;101788.03;;;10.56;100.00
49216;BME280;45943;53.148;8.204;2023-02-18T03:29:32;101783.84;;;10.52;100.00
49216;BME280;45943;53.148;8.204;2023-02-18T03:31:59;101774.91;;;10.52;100.00
49216;BME280;45943;53.148;8.204;2023-02-18T03:34:30;101776.22;;;10.59;100.00
49216;BME280;45943;53.148;8.204;2023-02-18T03:37:02;101764.63;;;10.58;100.00
49216;BME280;45943;53.148;8.204;2023-02-18T03:39:29;101768.75;;;10.64;100.00
49216;BME280;45943;53.148;8.204;2023-02-18T03:41:57;101762.94;;;10.57;100.00
49216;BME280;45943;53.148;8.204;2023-02-18T03:44:23;101767.91;;;10.63;100.00
49216;BME280;45943;53.148;8.204;2023-02-18T03:46:50;101766.06;;;10.64;100.00
49216;BME280;45943;53.148;8.204;2023-02-18T03:49:16;101767.56;;;10.68;100.00
49216;BME280;45943;53.148;8.204;2023-02-18T03:51:43;101780.13;;;10.68;100.00
49216;BME280;45943;53.148;8.204;2023-02-18T03:54:09;101765.75;;;10.69;100.00
49216;BME280;45943;53.148;8.204;2023-02-18T03:56:35;101761.25;;;10.69;100.00
49216;BME280;45943;53.148;8.204;2023-02-18T03:59:02;101760.81;;;10.62;100.00
49216;BME280;45943;53.148;8.204;2023-02-18T04:01:29;101765.84;;;10.67;100.00
49216;BME280;45943;53.148;8.204;2023-02-18T04:03:55;101763.28;;;10.66;100.00
49216;BME280;45943;53.148;8.204;2023-02-18T04:06:22;101758.78;;;10.66;100.00
49216;BME280;45943;53.148;8.204;2023-02-18T04:08:48;101753.63;;;10.63;100.00
49216;BME280;45943;53.148;8.204;2023-02-18T04:11:15;101741.25;;;10.60;100.00
49216;BME280;45943;53.148;8.204;2023-02-18T04:13:41;101733.19;;;10.60;100.00
49216;BME280;45943;53.148;8.204;2023-02-18T04:16:07;101733.72;;;10.53;100.00
49216;BME280;45943;53.148;8.204;2023-02-18T04:18:33;101729.13;;;10.55;100.00
49216;BME280;45943;53.148;8.204;2023-02-18T04:20:59;101720.09;;;10.56;100.00
49216;BME280;45943;53.148;8.204;2023-02-18T04:23:25;101709.66;;;10.51;100.00
49216;BME280;45943;53.148;8.204;2023-02-18T04:25:51;101711.41;;;10.52;100.00
49216;BME280;45943;53.148;8.204;2023-02-18T04:28:17;101717.53;;;10.54;100.00
49216;BME280;45943;53.148;8.204;2023-02-18T04:30:43;101700.88;;;10.49;100.00
49216;BME280;45943;53.148;8.204;2023-02-18T04:33:10;101708.16;;;10.47;100.00
49216;BME280;45943;53.148;8.204;2023-02-18T04:35:35;101709.88;;;10.48;100.00
49216;BME280;45943;53.148;8.204;2023-02-18T04:38:02;101712.28;;;10.53;100.00
49216;BME280;45943;53.148;8.204;2023-02-18T04:40:28;101703.25;;;10.54;100.00
49216;BME280;45943;53.148;8.204;2023-02-18T04:42:56;101706.38;;;10.60;100.00
49216;BME280;45943;53.148;8.204;2023-02-18T04:45:23;101708.09;;;10.61;100.00
49216;BME280;45943;53.148;8.204;2023-02-18T04:47:49;101709.84;;;10.62;100.00
49216;BME280;45943;53.148;8.204;2023-02-18T04:50:15;101697.69;;;10.57;100.00
49216;BME280;45943;53.148;8.204;2023-02-18T04:52:41;101691.97;;;10.49;100.00
49216;BME280;45943;53.148;8.204;2023-02-18T04:55:07;101694.00;;;10.45;100.00
49216;BME280;45943;53.148;8.204;2023-02-18T04:57:33;101684.84;;;10.21;100.00
49216;BME280;45943;53.148;8.204;2023-02-18T04:59:59;101687.78;;;10.45;100.00
49216;BME280;45943;53.148;8.204;2023-02-18T05:02:25;101674.91;;;10.50;100.00
49216;BME280;45943;53.148;8.204;2023-02-18T05:04:51;101672.56;;;10.58;100.00
49216;BME280;45943;53.148;8.204;2023-02-18T05:07:17;101664.63;;;10.56;100.00
49216;BME280;45943;53.148;8.204;2023-02-18T05:09:43;101669.47;;;10.64;100.00
49216;BME280;45943;53.148;8.204;2023-02-18T05:12:09;101670.34;;;10.65;100.00
49216;BME280;45943;53.148;8.204;2023-02-18T05:14:35;101654.34;;;10.63;100.00
49216;BME280;45943;53.148;8.204;2023-02-18T05:17:01;101654.25;;;10.65;100.00
49216;BME280;45943;53.148;8.204;2023-02-18T05:19:27;101646.19;;;10.65;100.00
49216;BME280;45943;53.148;8.204;2023-02-18T05:21:53;101648.03;;;10.64;100.00
49216;BME280;45943;53.148;8.204;2023-02-18T05:24:19;101646.09;;;10.66;100.00
49216;BME280;45943;53.148;8.204;2023-02-18T05:26:45;101636.09;;;10.55;100.00
49216;BME280;45943;53.148;8.204;2023-02-18T05:29:11;101618.78;;;10.59;100.00
49216;BME280;45943;53.148;8.204;2023-02-18T05:31:37;101612.47;;;10.60;100.00
49216;BME280;45943;53.148;8.204;2023-02-18T05:34:03;101608.94;;;10.60;100.00
49216;BME280;45943;53.148;8.204;2023-02-18T05:36:29;101602.69;;;10.59;100.00
49216;BME280;45943;53.148;8.204;2023-02-18T05:38:55;101591.78;;;10.62;100.00
49216;BME280;45943;53.148;8.204;2023-02-18T05:41:21;101579.63;;;10.57;100.00
49216;BME280;45943;53.148;8.204;2023-02-18T05:43:47;101575.97;;;10.45;100.00
49216;BME280;45943;53.148;8.204;2023-02-18T05:46:31;101568.66;;;10.34;100.00
49216;BME280;45943;53.148;8.204;2023-02-18T05:48:57;101571.53;;;10.31;100.00
49216;BME280;45943;53.148;8.204;2023-02-18T05:51:23;101552.75;;;10.31;100.00
49216;BME280;45943;53.148;8.204;2023-02-18T05:53:49;101550.63;;;10.24;100.00
49216;BME280;45943;53.148;8.204;2023-02-18T05:56:15;101537.38;;;10.21;100.00
49216;BME280;45943;53.148;8.204;2023-02-18T05:58:41;101531.03;;;10.09;100.00
49216;BME280;45943;53.148;8.204;2023-02-18T06:01:07;101529.53;;;10.05;100.00
49216;BME280;45943;53.148;8.204;2023-02-18T06:03:33;101536.72;;;10.04;100.00
49216;BME280;45943;53.148;8.204;2023-02-18T06:05:59;101523.41;;;10.03;100.00
49216;BME280;45943;53.148;8.204;2023-02-18T06:08:25;101510.00;;;10.03;100.00
49216;BME280;45943;53.148;8.204;2023-02-18T06:10:51;101516.25;;;10.16;100.00
49216;BME280;45943;53.148;8.204;2023-02-18T06:13:17;101499.56;;;10.25;100.00
49216;BME280;45943;53.148;8.204;2023-02-18T06:15:43;101500.06;;;10.18;100.00
49216;BME280;45943;53.148;8.204;2023-02-18T06:18:09;101507.25;;;10.17;100.00
49216;BME280;45943;53.148;8.204;2023-02-18T06:20:35;101499.84;;;10.21;100.00
49216;BME280;45943;53.148;8.204;2023-02-18T06:23:01;101500.44;;;10.26;100.00
49216;BME280;45943;53.148;8.204;2023-02-18T06:25:27;101481.00;;;10.22;100.00
49216;BME280;45943;53.148;8.204;2023-02-18T06:27:53;101491.19;;;10.30;100.00
49216;BME280;45943;53.148;8.204;2023-02-18T06:30:19;101476.75;;;10.32;100.00
49216;BME280;45943;53.148;8.204;2023-02-18T06:32:45;101492.16;;;10.29;100.00
49216;BME280;45943;53.148;8.204;2023-02-18T06:35:11;101468.03;;;10.29;100.00
49216;BME280;45943;53.148;8.204;2023-02-18T06:37:37;101447.78;;;10.25;100.00
49216;BME280;45943;53.148;8.204;2023-02-18T06:40:03;101444.38;;;10.09;100.00
49216;BME280;45943;53.148;8.204;2023-02-18T06:42:31;101442.16;;;10.15;100.00
49216;BME280;45943;53.148;8.204;2023-02-18T06:44:57;101438.91;;;10.10;100.00
49216;BME280;45943;53.148;8.204;2023-02-18T06:47:23;101435.16;;;10.13;100.00
49216;BME280;45943;53.148;8.204;2023-02-18T06:49:48;101416.41;;;10.00;100.00
49216;BME280;45943;53.148;8.204;2023-02-18T06:52:14;101415.66;;;9.98;100.00
49216;BME280;45943;53.148;8.204;2023-02-18T06:54:40;101409.66;;;9.94;100.00
49216;BME280;45943;53.148;8.204;2023-02-18T06:57:06;101405.78;;;9.98;100.00
49216;BME280;45943;53.148;8.204;2023-02-18T06:59:32;101393.56;;;9.94;100.00
49216;BME280;45943;53.148;8.204;2023-02-18T07:01:58;101387.53;;;9.91;100.00
49216;BME280;45943;53.148;8.204;2023-02-18T07:04:24;101385.94;;;10.01;100.00
49216;BME280;45943;53.148;8.204;2023-02-18T07:06:50;101385.63;;;10.05;100.00
49216;BME280;45943;53.148;8.204;2023-02-18T07:09:16;101383.06;;;10.04;100.00
49216;BME280;45943;53.148;8.204;2023-02-18T07:11:42;101373.72;;;10.10;100.00
49216;BME280;45943;53.148;8.204;2023-02-18T07:14:08;101366.78;;;10.07;100.00
49216;BME280;45943;53.148;8.204;2023-02-18T07:16:34;101366.53;;;10.10;100.00
49216;BME280;45943;53.148;8.204;2023-02-18T07:19:00;101369.16;;;10.24;100.00
49216;BME280;45943;53.148;8.204;2023-02-18T07:21:26;101356.94;;;10.33;100.00
49216;BME280;45943;53.148;8.204;2023-02-18T07:23:52;101353.16;;;10.36;100.00
49216;BME280;45943;53.148;8.204;2023-02-18T07:26:18;101337.63;;;10.28;100.00
49216;BME280;45943;53.148;8.204;2023-02-18T07:28:44;101326.66;;;10.31;100.00
49216;BME280;45943;53.148;8.204;2023-02-18T07:31:10;101321.19;;;10.45;100.00
49216;BME280;45943;53.148;8.204;2023-02-18T07:33:36;101328.03;;;10.49;100.00
49216;BME280;45943;53.148;8.204;2023-02-18T07:36:02;101319.19;;;10.60;100.00
49216;BME280;45943;53.148;8.204;2023-02-18T07:38:29;101311.50;;;10.55;100.00
49216;BME280;45943;53.148;8.204;2023-02-18T07:40:55;101301.91;;;10.64;100.00
49216;BME280;45943;53.148;8.204;2023-02-18T07:43:22;101302.25;;;10.59;100.00
49216;BME280;45943;53.148;8.204;2023-02-18T07:45:48;101296.75;;;10.61;100.00
49216;BME280;45943;53.148;8.204;2023-02-18T07:48:15;101301.38;;;10.59;100.00
49216;BME280;45943;53.148;8.204;2023-02-18T07:50:42;101291.53;;;10.83;100.00
49216;BME280;45943;53.148;8.204;2023-02-18T07:53:10;101283.97;;;10.88;100.00
49216;BME280;45943;53.148;8.204;2023-02-18T07:55:37;101285.66;;;11.02;100.00
49216;BME280;45943;53.148;8.204;2023-02-18T07:58:20;101284.31;;;11.08;100.00
49216;BME280;45943;53.148;8.204;2023-02-18T08:00:48;101288.50;;;11.12;100.00
49216;BME280;45943;53.148;8.204;2023-02-18T08:03:16;101277.06;;;11.21;100.00
49216;BME280;45943;53.148;8.204;2023-02-18T08:05:43;101275.84;;;11.25;100.00
49216;BME280;45943;53.148;8.204;2023-02-18T08:08:12;101258.91;;;11.36;100.00
49216;BME280;45943;53.148;8.204;2023-02-18T08:10:40;101269.88;;;11.33;100.00
49216;BME280;45943;53.148;8.204;2023-02-18T08:13:07;101266.84;;;11.37;100.00
49216;BME280;45943;53.148;8.204;2023-02-18T08:15:34;101274.69;;;11.52;100.00
49216;BME280;45943;53.148;8.204;2023-02-18T08:18:00;101268.34;;;11.53;100.00
49216;BME280;45943;53.148;8.204;2023-02-18T08:20:27;101266.00;;;11.48;100.00
49216;BME280;45943;53.148;8.204;2023-02-18T08:22:53;101269.56;;;11.60;100.00
49216;BME280;45943;53.148;8.204;2023-02-18T08:25:19;101267.84;;;11.59;100.00
49216;BME280;45943;53.148;8.204;2023-02-18T08:27:45;101252.97;;;11.66;100.00
49216;BME280;45943;53.148;8.204;2023-02-18T08:30:11;101247.25;;;11.70;100.00
49216;BME280;45943;53.148;8.204;2023-02-18T08:32:37;101252.13;;;11.76;100.00
49216;BME280;45943;53.148;8.204;2023-02-18T08:35:04;101250.09;;;11.80;100.00
49216;BME280;45943;53.148;8.204;2023-02-18T08:37:32;101249.97;;;11.82;100.00
49216;BME280;45943;53.148;8.204;2023-02-18T08:39:58;101249.47;;;11.88;100.00
49216;BME280;45943;53.148;8.204;2023-02-18T08:42:26;101244.34;;;11.85;100.00
49216;BME280;45943;53.148;8.204;2023-02-18T08:44:52;101249.31;;;11.78;100.00
49216;BME280;45943;53.148;8.204;2023-02-18T08:47:18;101238.97;;;11.85;100.00
49216;BME280;45943;53.148;8.204;2023-02-18T08:49:44;101231.88;;;11.84;100.00
49216;BME280;45943;53.148;8.204;2023-02-18T08:52:11;101230.19;;;11.94;100.00
49216;BME280;45943;53.148;8.204;2023-02-18T08:54:38;101238.22;;;12.05;100.00
49216;BME280;45943;53.148;8.204;2023-02-18T08:57:05;101237.63;;;12.01;100.00
49216;BME280;45943;53.148;8.204;2023-02-18T08:59:31;101228.84;;;12.11;100.00
49216;BME280;45943;53.148;8.204;2023-02-18T09:01:57;101227.09;;;11.98;100.00
49216;BME280;45943;53.148;8.204;2023-02-18T09:04:22;101229.19;;;12.06;100.00
49216;BME280;45943;53.148;8.204;2023-02-18T09:06:48;101222.47;;;12.12;100.00
49216;BME280;45943;53.148;8.204;2023-02-18T09:09:15;101228.19;;;12.07;100.00
49216;BME280;45943;53.148;8.204;2023-02-18T09:11:42;101217.69;;;12.15;100.00
49216;BME280;45943;53.148;8.204;2023-02-18T09:14:09;101221.13;;;12.06;100.00
49216;BME280;45943;53.148;8.204;2023-02-18T09:16:35;101225.03;;;12.13;100.00
49216;BME280;45943;53.148;8.204;2023-02-18T09:19:03;101216.97;;;12.13;100.00
49216;BME280;45943;53.148;8.204;2023-02-18T09:21:29;101217.69;;;12.04;100.00
49216;BME280;45943;53.148;8.204;2023-02-18T09:23:56;101227.34;;;12.18;100.00
49216;BME280;45943;53.148;8.204;2023-02-18T09:26:22;101214.53;;;12.10;100.00
49216;BME280;45943;53.148;8.204;2023-02-18T09:28:49;101214.88;;;12.17;100.00
49216;BME280;45943;53.148;8.204;2023-02-18T09:31:18;101216.34;;;12.21;100.00
49216;BME280;45943;53.148;8.204;2023-02-18T09:33:49;101209.50;;;12.17;100.00
49216;BME280;45943;53.148;8.204;2023-02-18T09:36:17;101200.56;;;12.16;100.00
49216;BME280;45943;53.148;8.204;2023-02-18T09:38:45;101196.91;;;12.17;100.00
49216;BME280;45943;53.148;8.204;2023-02-18T09:44:19;101208.75;;;12.26;100.00
49216;BME280;45943;53.148;8.204;2023-02-18T09:46:57;101220.47;;;12.25;100.00
49216;BME280;45943;53.148;8.204;2023-02-18T09:49:26;101216.56;;;12.18;100.00
49216;BME280;45943;53.148;8.204;2023-02-18T09:51:55;101211.34;;;12.05;100.00
49216;BME280;45943;53.148;8.204;2023-02-18T09:54:21;101213.53;;;12.11;100.00
49216;BME280;45943;53.148;8.204;2023-02-18T09:56:48;101218.16;;;12.09;100.00
49216;BME280;45943;53.148;8.204;2023-02-18T09:59:16;101216.94;;;12.24;100.00
49216;BME280;45943;53.148;8.204;2023-02-18T10:01:45;101209.59;;;12.26;100.00
49216;BME280;45943;53.148;8.204;2023-02-18T10:04:18;101211.56;;;12.24;100.00
49216;BME280;45943;53.148;8.204;2023-02-18T10:06:52;101206.66;;;12.18;100.00
49216;BME280;45943;53.148;8.204;2023-02-18T10:09:20;101210.84;;;12.22;100.00
49216;BME280;45943;53.148;8.204;2023-02-18T10:11:55;101213.88;;;12.18;100.00
49216;BME280;45943;53.148;8.204;2023-02-18T10:14:25;101221.00;;;12.07;100.00
49216;BME280;45943;53.148;8.204;2023-02-18T10:16:51;101209.38;;;12.07;100.00
49216;BME280;45943;53.148;8.204;2023-02-18T10:19:32;101219.53;;;12.15;100.00
49216;BME280;45943;53.148;8.204;2023-02-18T10:22:03;101212.66;;;12.22;100.00
49216;BME280;45943;53.148;8.204;2023-02-18T10:24:35;101230.41;;;12.13;100.00
49216;BME280;45943;53.148;8.204;2023-02-18T10:27:05;101228.06;;;12.09;100.00
49216;BME280;45943;53.148;8.204;2023-02-18T10:29:32;101203.75;;;11.99;100.00
49216;BME280;45943;53.148;8.204;2023-02-18T10:34:55;101211.09;;;12.19;100.00
49216;BME280;45943;53.148;8.204;2023-02-18T10:43:25;101213.16;;;12.16;100.00
49216;BME280;45943;53.148;8.204;2023-02-18T10:48:43;101206.06;;;12.15;100.00
49216;BME280;45943;53.148;8.204;2023-02-18T10:51:17;101205.94;;;12.16;100.00
49216;BME280;45943;53.148;8.204;2023-02-18T10:53:47;101198.50;;;12.09;100.00
49216;BME280;45943;53.148;8.204;2023-02-18T10:56:31;101210.09;;;12.09;100.00
49216;BME280;45943;53.148;8.204;2023-02-18T11:02:01;101215.59;;;12.19;100.00
49216;BME280;45943;53.148;8.204;2023-02-18T11:04:38;101206.44;;;12.21;100.00
49216;BME280;45943;53.148;8.204;2023-02-18T11:07:11;101218.03;;;12.33;100.00
49216;BME280;45943;53.148;8.204;2023-02-18T11:09:54;101208.00;;;12.35;100.00
49216;BME280;45943;53.148;8.204;2023-02-18T11:12:23;101209.56;;;12.38;100.00
49216;BME280;45943;53.148;8.204;2023-02-18T11:15:03;101216.41;;;12.42;100.00
49216;BME280;45943;53.148;8.204;2023-02-18T11:17:39;101220.09;;;12.41;100.00
49216;BME280;45943;53.148;8.204;2023-02-18T11:20:23;101231.97;;;12.27;100.00
49216;BME280;45943;53.148;8.204;2023-02-18T11:22:58;101225.72;;;12.38;100.00
49216;BME280;45943;53.148;8.204;2023-02-18T11:25:34;101225.25;;;12.32;100.00
49216;BME280;45943;53.148;8.204;2023-02-18T11:28:06;101225.13;;;12.34;100.00
49216;BME280;45943;53.148;8.204;2023-02-18T11:30:55;101229.25;;;12.38;100.00
49216;BME280;45943;53.148;8.204;2023-02-18T11:33:38;101229.88;;;12.42;100.00
49216;BME280;45943;53.148;8.204;2023-02-18T11:36:24;101228.63;;;12.46;100.00
49216;BME280;45943;53.148;8.204;2023-02-18T11:38:55;101231.59;;;12.43;100.00
49216;BME280;45943;53.148;8.204;2023-02-18T11:41:36;101247.59;;;12.44;100.00
49216;BME280;45943;53.148;8.204;2023-02-18T11:44:06;101229.03;;;12.41;100.00
49216;BME280;45943;53.148;8.204;2023-02-18T11:49:37;101233.03;;;12.47;100.00
49216;BME280;45943;53.148;8.204;2023-02-18T11:52:08;101245.97;;;12.53;100.00
49216;BME280;45943;53.148;8.204;2023-02-18T11:54:41;101240.72;;;12.51;100.00
49216;BME280;45943;53.148;8.204;2023-02-18T11:57:21;101235.59;;;12.48;100.00
49216;BME280;45943;53.148;8.204;2023-02-18T11:59:50;101246.34;;;12.48;100.00
49216;BME280;45943;53.148;8.204;2023-02-18T12:09:59;101244.03;;;12.44;100.00
49216;BME280;45943;53.148;8.204;2023-02-18T12:12:29;101260.28;;;12.53;100.00
49216;BME280;45943;53.148;8.204;2023-02-18T12:15:00;101252.63;;;12.49;100.00
49216;BME280;45943;53.148;8.204;2023-02-18T12:17:40;101250.50;;;12.52;100.00
49216;BME280;45943;53.148;8.204;2023-02-18T12:26:02;101257.09;;;12.59;100.00
49216;BME280;45943;53.148;8.204;2023-02-18T12:31:37;101265.69;;;12.53;100.00
49216;BME280;45943;53.148;8.204;2023-02-18T12:34:33;101274.59;;;12.54;100.00
49216;BME280;45943;53.148;8.204;2023-02-18T12:37:30;101270.78;;;12.56;100.00
49216;BME280;45943;53.148;8.204;2023-02-18T12:43:01;101255.00;;;12.63;100.00
49216;BME280;45943;53.148;8.204;2023-02-18T12:45:43;101272.59;;;12.67;100.00
49216;BME280;45943;53.148;8.204;2023-02-18T12:48:30;101267.22;;;12.67;100.00
49216;BME280;45943;53.148;8.204;2023-02-18T12:51:41;101271.25;;;12.73;100.00
49216;BME280;45943;53.148;8.204;2023-02-18T12:56:56;101269.53;;;12.72;100.00
49216;BME280;45943;53.148;8.204;2023-02-18T13:02:47;101276.00;;;12.80;100.00
49216;BME280;45943;53.148;8.204;2023-02-18T13:16:27;101282.47;;;12.89;100.00
49216;BME280;45943;53.148;8.204;2023-02-18T13:21:48;101274.75;;;12.84;100.00
49216;BME280;45943;53.148;8.204;2023-02-18T13:24:34;101296.03;;;12.87;100.00
49216;BME280;45943;53.148;8.204;2023-02-18T13:30:20;101298.00;;;12.85;100.00
49216;BME280;45943;53.148;8.204;2023-02-18T13:37:52;101303.66;;;12.82;100.00
49216;BME280;45943;53.148;8.204;2023-02-18T13:40:21;101297.78;;;12.88;100.00
49216;BME280;45943;53.148;8.204;2023-02-18T13:42:52;101286.50;;;12.83;100.00
49216;BME280;45943;53.148;8.204;2023-02-18T13:45:23;101296.56;;;12.81;100.00
49216;BME280;45943;53.148;8.204;2023-02-18T13:47:52;101299.00;;;12.84;100.00
49216;BME280;45943;53.148;8.204;2023-02-18T13:50:24;101299.25;;;12.81;100.00
49216;BME280;45943;53.148;8.204;2023-02-18T13:55:34;101305.50;;;12.82;100.00
49216;BME280;45943;53.148;8.204;2023-02-18T13:58:33;101303.06;;;12.79;100.00
49216;BME280;45943;53.148;8.204;2023-02-18T14:01:10;101312.84;;;12.80;100.00
49216;BME280;45943;53.148;8.204;2023-02-18T14:06:16;101321.88;;;12.90;100.00
49216;BME280;45943;53.148;8.204;2023-02-18T14:08:47;101329.44;;;12.96;100.00
49216;BME280;45943;53.148;8.204;2023-02-18T14:17:11;101332.41;;;13.25;100.00
49216;BME280;45943;53.148;8.204;2023-02-18T14:22:32;101340.91;;;13.20;100.00
49216;BME280;45943;53.148;8.204;2023-02-18T14:27:34;101349.22;;;13.17;100.00
49216;BME280;45943;53.148;8.204;2023-02-18T14:30:07;101350.56;;;13.12;100.00
49216;BME280;45943;53.148;8.204;2023-02-18T14:32:50;101358.78;;;13.10;100.00
49216;BME280;45943;53.148;8.204;2023-02-18T14:35:24;101357.19;;;13.08;100.00
49216;BME280;45943;53.148;8.204;2023-02-18T14:46:12;101361.38;;;13.01;100.00
49216;BME280;45943;53.148;8.204;2023-02-18T14:48:49;101367.03;;;12.86;100.00
49216;BME280;45943;53.148;8.204;2023-02-18T14:51:42;101385.38;;;12.92;100.00
49216;BME280;45943;53.148;8.204;2023-02-18T14:54:14;101370.94;;;12.93;100.00
49216;BME280;45943;53.148;8.204;2023-02-18T14:56:56;101370.69;;;12.85;100.00